aviador You're here:

SAWE Decoded Metar

RIO GRANDE in ARGENTINA
Report Time2018-05-20 19:00:00
UTC Time2018-05-20 19:34:18
Flight Rules vfr VFR
Wind320° at 20 kt
W.Decomp.*RWY 25: 10.6 kt HW 17.0 kt RCW
W.Rank320° ranks 5
Current wind is above 320° avg. (12.1)
Visibility9999 m
Phenomena:N/A
Clouds:N/A
Expected CloudBase > 1,200 ft AGL from Temp-Dew spread
CeilingNone
Temp07°C (ISA -8)
Dew Point04°C (81% RH)
AAT-1.5°C
QNH0999 hPa
Density Alt-282 ft
Elevation72 ft
Report Wrong Elevation
Raw Report
METAR SAWE 201900Z 32020KT CAVOK 07/04 Q0999=

Extra information for SAWE:More info

Metar Taf Metar & Taf Last 4 Metars F.Rules Stats Wind Profile Meteogram Temp Stats Airport Information Weather charts Add Link Nearby VenuesMetar ALERT Operation Metar Decoded Social comments